Time;durP1;ratioP1;P1;durP2;ratioP2;P2;SDS_P1;SDS_P2;PMS_P1;PMS_P2;Temp;Humidity;BMP_temperature;BMP_pressure;BME280_temperature;BME280_humidity;BME280_pressure;Samples;Min_cycle;Max_cycle;Signal;HPM_P1;HPM_P2
2021/12/06 00:00:46;;;;;;;64.57;23.77;;;;;;;2.74;100.00;97020.88;5074463;28;20247;-82
2021/12/06 00:03:19;;;;;;;68.00;23.63;;;;;;;2.78;100.00;97019.25;5056762;28;20422;-81
2021/12/06 00:05:46;;;;;;;31.30;12.10;;;;;;;2.76;100.00;97011.50;5057249;28;20052;-81
2021/12/06 00:08:13;;;;;;;19.73;8.30;;;;;;;2.77;100.00;97018.44;5056447;28;20049;-82
2021/12/06 00:10:40;;;;;;;24.90;8.30;;;;;;;2.69;100.00;97024.38;5074760;28;20112;-82
2021/12/06 00:13:07;;;;;;;18.40;8.25;;;;;;;2.84;100.00;97029.59;5054784;28;20113;-82
2021/12/06 00:15:37;;;;;;;18.80;7.95;;;;;;;2.74;100.00;97036.91;5074612;28;20108;-81
2021/12/06 00:18:04;;;;;;;25.42;9.27;;;;;;;2.74;100.00;97031.56;5057053;28;20052;-81
2021/12/06 00:20:30;;;;;;;20.75;8.15;;;;;;;2.67;100.00;97039.09;5074810;28;20045;-81
2021/12/06 00:22:57;;;;;;;18.52;7.75;;;;;;;2.72;100.00;97039.06;5056922;28;20455;-82
2021/12/06 00:25:23;;;;;;;23.42;7.90;;;;;;;2.63;100.00;97032.72;5075374;28;20048;-82
2021/12/06 00:27:50;;;;;;;15.93;7.93;;;;;;;2.60;100.00;97039.44;5072789;28;20095;-84
2021/12/06 00:30:17;;;;;;;24.65;8.10;;;;;;;2.53;100.00;97054.19;5056618;28;20048;-83
2021/12/06 00:32:45;;;;;;;17.30;7.90;;;;;;;2.59;100.00;97045.03;5074344;28;20071;-82
2021/12/06 00:35:17;;;;;;;21.15;8.07;;;;;;;2.59;100.00;97050.38;5057152;28;20048;-83
2021/12/06 00:37:54;;;;;;;19.65;8.77;;;;;;;2.62;100.00;97041.81;5056391;28;20519;-82
2021/12/06 00:40:22;;;;;;;19.90;8.95;;;;;;;2.58;100.00;97038.13;5055993;28;20416;-79
2021/12/06 00:42:50;;;;;;;21.05;8.93;;;;;;;2.46;100.00;97051.81;5054639;28;20060;-81
2021/12/06 00:45:17;;;;;;;24.25;8.70;;;;;;;2.42;100.00;97056.13;5055766;28;20052;-82
2021/12/06 00:47:43;;;;;;;19.40;8.45;;;;;;;2.42;100.00;97056.91;5074097;28;20083;-82
2021/12/06 00:50:10;;;;;;;20.77;9.82;;;;;;;2.46;100.00;97059.81;5057688;28;20060;-83
2021/12/06 00:52:37;;;;;;;27.13;9.95;;;;;;;2.40;100.00;97053.69;5055326;28;20045;-82
2021/12/06 00:55:04;;;;;;;28.00;10.32;;;;;;;2.42;100.00;97056.13;5074144;28;20049;-84
2021/12/06 00:57:31;;;;;;;22.48;10.13;;;;;;;2.49;100.00;97061.94;5072188;28;20447;-80
2021/12/06 00:59:57;;;;;;;21.73;9.30;;;;;;;2.48;100.00;97068.34;5054990;28;20053;-81
2021/12/06 01:02:24;;;;;;;23.30;10.68;;;;;;;2.42;100.00;97078.28;5072448;28;20150;-81
2021/12/06 01:04:51;;;;;;;21.63;10.57;;;;;;;2.43;100.00;97071.84;5058928;28;20074;-85
2021/12/06 01:07:18;;;;;;;29.08;10.57;;;;;;;2.53;100.00;97079.81;5077339;28;20102;-82
2021/12/06 01:09:45;;;;;;;24.00;10.68;;;;;;;2.65;100.00;97087.50;5073143;28;20048;-80
2021/12/06 01:12:11;;;;;;;26.05;11.18;;;;;;;2.61;100.00;97093.66;5072053;28;20048;-82
2021/12/06 01:14:38;;;;;;;24.65;10.50;;;;;;;2.49;100.00;97091.31;5072303;28;20098;-82
2021/12/06 01:17:06;;;;;;;26.92;12.00;;;;;;;2.59;100.00;97099.28;5054801;28;20083;-82
2021/12/06 01:19:32;;;;;;;27.05;13.63;;;;;;;2.59;100.00;97101.94;5064091;28;20049;-79
2021/12/06 01:22:26;;;;;;;32.97;13.85;;;;;;;2.46;100.00;97107.91;5055100;28;20052;-82
2021/12/06 01:25:00;;;;;;;29.40;13.63;;;;;;;2.42;100.00;97099.66;5055998;28;20378;-82
2021/12/06 01:30:36;;;;;;;39.63;15.80;;;;;;;2.44;100.00;97110.84;5073948;28;20044;-81
2021/12/06 01:33:31;;;;;;;31.30;15.05;;;;;;;2.40;100.00;97107.13;5069021;28;20080;-82
2021/12/06 01:41:19;;;;;;;37.72;16.58;;;;;;;2.24;100.00;97123.50;5073542;28;20118;-82
2021/12/06 01:44:06;;;;;;;41.95;15.73;;;;;;;2.20;100.00;97120.56;5071759;28;20109;-82
2021/12/06 01:46:35;;;;;;;40.17;16.85;;;;;;;2.19;100.00;97124.34;5073517;28;20056;-82
2021/12/06 01:49:03;;;;;;;45.63;18.58;;;;;;;2.20;100.00;97123.25;5072629;28;20052;-82
2021/12/06 01:51:30;;;;;;;43.80;20.02;;;;;;;2.20;100.00;97127.78;5073184;28;20052;-83
2021/12/06 01:53:57;;;;;;;51.17;20.52;;;;;;;2.29;100.00;97126.16;5054573;28;20098;-82
2021/12/06 01:56:24;;;;;;;52.97;20.92;;;;;;;2.17;100.00;97117.66;5054313;28;20045;-81
2021/12/06 01:58:51;;;;;;;59.38;21.67;;;;;;;2.25;100.00;97125.09;5056596;28;20474;-84
2021/12/06 02:01:17;;;;;;;59.42;24.35;;;;;;;2.22;100.00;97125.66;5054494;28;20106;-83
2021/12/06 02:03:44;;;;;;;63.00;24.83;;;;;;;2.22;100.00;97133.66;5053003;28;20048;-82
2021/12/06 02:06:11;;;;;;;77.35;25.70;;;;;;;2.15;100.00;97125.94;5054855;28;20052;-82
2021/12/06 02:08:37;;;;;;;94.35;25.15;;;;;;;2.27;100.00;97134.41;5072367;28;20082;-81
2021/12/06 02:11:05;;;;;;;96.47;26.38;;;;;;;2.18;100.00;97128.06;5073399;28;20447;-82
2021/12/06 02:13:44;;;;;;;137.95;25.83;;;;;;;2.17;100.00;97137.13;5054793;28;20075;-82
2021/12/06 02:16:11;;;;;;;97.35;25.65;;;;;;;2.25;100.00;97135.75;5055808;28;20509;-83
2021/12/06 02:21:18;;;;;;;168.98;26.45;;;;;;;2.25;100.00;97139.25;5072558;28;20117;-83
2021/12/06 02:23:48;;;;;;;170.10;26.10;;;;;;;2.18;100.00;97143.28;5072796;28;20048;-81
2021/12/06 02:26:16;;;;;;;146.05;25.77;;;;;;;2.16;100.00;97143.56;5072855;28;20055;-83
2021/12/06 02:28:45;;;;;;;335.00;26.77;;;;;;;2.14;100.00;97151.03;5054538;28;20106;-82
2021/12/06 02:31:12;;;;;;;331.85;28.15;;;;;;;2.02;100.00;97155.06;5054379;28;20056;-82
2021/12/06 02:33:39;;;;;;;182.85;26.73;;;;;;;2.11;100.00;97156.94;5054757;28;20052;-82
2021/12/06 02:36:06;;;;;;;329.63;28.23;;;;;;;2.04;100.00;97160.97;5055549;28;20053;-83
2021/12/06 02:38:33;;;;;;;312.25;26.77;;;;;;;2.07;100.00;97166.53;5054844;28;20401;-83
2021/12/06 02:41:00;;;;;;;203.02;28.55;;;;;;;2.05;100.00;97165.22;5072371;28;20052;-82
2021/12/06 02:43:27;;;;;;;142.38;25.60;;;;;;;1.99;100.00;97161.75;5070913;28;20059;-82
2021/12/06 02:45:54;;;;;;;230.77;29.30;;;;;;;1.86;100.00;97168.47;5054427;28;20055;-83
2021/12/06 02:48:21;;;;;;;225.27;27.20;;;;;;;1.75;100.00;97166.09;5071792;28;20064;-83
2021/12/06 02:50:56;;;;;;;214.85;28.63;;;;;;;1.82;100.00;97163.94;5071455;28;20482;-83
2021/12/06 02:53:25;;;;;;;277.80;28.27;;;;;;;1.69;100.00;97165.31;5061136;28;20090;-83
2021/12/06 02:55:54;;;;;;;232.70;27.23;;;;;;;1.69;100.00;97165.31;5081158;28;20048;-83
2021/12/06 02:59:00;;;;;;;303.00;28.20;;;;;;;1.64;100.00;97165.31;5075068;28;20056;-83
2021/12/06 03:01:30;;;;;;;284.27;29.35;;;;;;;1.75;100.00;97166.91;5072910;28;20060;-82
2021/12/06 03:03:58;;;;;;;515.17;32.17;;;;;;;1.73;100.00;97169.03;5058084;28;20048;-82
2021/12/06 03:06:25;;;;;;;332.13;28.88;;;;;;;1.83;100.00;97174.34;5058424;28;20045;-82
2021/12/06 03:09:05;;;;;;;180.88;27.95;;;;;;;1.95;100.00;97166.06;5085689;28;20052;-81
2021/12/06 03:11:43;;;;;;;191.93;27.10;;;;;;;2.06;100.00;97178.31;5059173;28;20056;-81
2021/12/06 03:14:12;;;;;;;259.42;28.30;;;;;;;1.95;100.00;97171.38;5058519;28;20083;-82
2021/12/06 03:16:40;;;;;;;365.67;30.73;;;;;;;1.89;100.00;97173.28;5058823;28;20048;-82
2021/12/06 03:19:07;;;;;;;488.55;31.40;;;;;;;1.85;100.00;97182.09;5058079;28;20053;-82
2021/12/06 03:21:35;;;;;;;206.55;27.27;;;;;;;1.94;100.00;97167.09;5075555;28;20056;-83
2021/12/06 03:24:04;;;;;;;430.83;30.67;;;;;;;1.89;100.00;97173.28;5057624;28;20044;-83
2021/12/06 03:26:33;;;;;;;615.28;33.97;;;;;;;1.81;100.00;97187.16;5075191;28;20064;-82
2021/12/06 03:29:00;;;;;;;467.63;30.30;;;;;;;1.85;100.00;97180.22;5057067;28;20052;-82
2021/12/06 03:31:27;;;;;;;445.08;31.35;;;;;;;1.77;100.00;97182.63;5057942;28;20075;-82
2021/12/06 03:33:56;;;;;;;442.95;31.92;;;;;;;1.85;100.00;97179.41;5065257;28;20074;-81
2021/12/06 03:36:24;;;;;;;648.25;35.13;;;;;;;1.89;100.00;97173.28;5063247;28;20554;-82
2021/12/06 03:38:52;;;;;;;410.80;31.35;;;;;;;1.95;100.00;97187.41;5064765;28;20120;-80
2021/12/06 03:41:21;;;;;;;485.05;35.22;;;;;;;1.92;100.00;97187.94;5054609;28;20477;-82
2021/12/06 03:43:49;;;;;;;523.22;33.00;;;;;;;1.86;100.00;97195.16;5048082;28;20428;-82
2021/12/06 03:46:31;;;;;;;397.17;37.30;;;;;;;1.91;100.00;97190.88;5054842;28;20041;-80
2021/12/06 03:48:58;;;;;;;582.75;36.65;;;;;;;1.91;100.00;97204.22;5072080;28;20053;-80
2021/12/06 03:51:25;;;;;;;976.67;47.72;;;;;;;1.88;100.00;97202.91;5063918;28;20045;-81
2021/12/06 03:53:52;;;;;;;628.72;39.08;;;;;;;1.79;100.00;97218.66;5074955;28;20092;-82
2021/12/06 03:56:19;;;;;;;315.58;36.03;;;;;;;1.86;100.00;97215.69;5074639;28;20048;-80
2021/12/06 03:58:47;;;;;;;243.13;32.00;;;;;;;1.73;100.00;97210.94;5073258;28;20102;-81
2021/12/06 04:01:14;;;;;;;299.15;33.33;;;;;;;1.66;100.00;97215.72;5072631;28;20098;-82
2021/12/06 04:03:42;;;;;;;253.07;32.03;;;;;;;1.58;100.00;97208.25;5074776;28;20094;-83
2021/12/06 04:06:10;;;;;;;150.13;30.23;;;;;;;1.58;100.00;97217.06;5074201;28;20110;-83
2021/12/06 04:08:36;;;;;;;174.80;31.70;;;;;;;1.66;100.00;97218.38;5073163;28;20063;-81
2021/12/06 04:11:03;;;;;;;267.67;31.17;;;;;;;1.63;100.00;97221.59;5073425;28;20113;-82
2021/12/06 04:13:31;;;;;;;345.77;31.52;;;;;;;1.51;100.00;97213.88;5073465;28;20048;-82
2021/12/06 04:15:59;;;;;;;291.70;30.73;;;;;;;1.50;100.00;97228.25;5074428;28;20080;-82
2021/12/06 04:18:26;;;;;;;381.80;34.60;;;;;;;1.43;100.00;97221.59;5075053;28;20044;-84
2021/12/06 04:20:53;;;;;;;274.23;29.35;;;;;;;1.43;100.00;97226.94;5074056;28;20052;-83
2021/12/06 04:23:20;;;;;;;280.50;29.42;;;;;;;1.51;100.00;97237.88;5049113;28;20467;-83
2021/12/06 04:25:48;;;;;;;212.15;28.10;;;;;;;1.50;100.00;97244.25;5054684;28;20448;-83
2021/12/06 04:28:18;;;;;;;177.60;27.67;;;;;;;1.57;100.00;97238.69;5052565;28;20076;-83
2021/12/06 04:30:47;;;;;;;119.80;26.67;;;;;;;1.59;100.00;97231.19;5052352;28;20056;-82
2021/12/06 04:33:14;;;;;;;121.75;25.48;;;;;;;1.59;100.00;97231.19;5054016;28;20106;-84
2021/12/06 04:35:41;;;;;;;100.20;22.42;;;;;;;1.51;100.00;97235.19;5054478;28;20053;-83
2021/12/06 04:38:09;;;;;;;94.07;22.58;;;;;;;1.49;100.00;97232.00;5052532;28;20041;-83
2021/12/06 04:40:36;;;;;;;77.53;20.75;;;;;;;1.45;100.00;97233.59;5051783;28;20049;-83
2021/12/06 04:43:04;;;;;;;67.32;19.13;;;;;;;1.47;100.00;97231.47;5049917;28;20097;-82
2021/12/06 04:45:31;;;;;;;58.75;17.52;;;;;;;1.50;100.00;97243.47;5057824;28;20083;-85
2021/12/06 04:48:01;;;;;;;69.00;17.98;;;;;;;1.54;100.00;97249.88;5056683;28;20087;-82
2021/12/06 04:50:31;;;;;;;77.90;17.90;;;;;;;1.68;100.00;97250.94;5052764;28;20045;-82
2021/12/06 04:53:03;;;;;;;99.90;20.55;;;;;;;1.65;100.00;97249.59;5052031;28;20122;-81
2021/12/06 04:55:52;;;;;;;228.10;24.08;;;;;;;1.42;100.00;97246.69;5054946;28;20053;-81
2021/12/06 04:58:24;;;;;;;198.18;23.45;;;;;;;1.42;100.00;97258.13;5052439;28;20116;-82
2021/12/06 05:00:53;;;;;;;173.82;23.50;;;;;;;1.37;100.00;97254.66;5064281;28;20601;-82
2021/12/06 05:03:21;;;;;;;116.00;24.17;;;;;;;1.34;100.00;97266.66;5054930;28;20073;-81
2021/12/06 05:06:10;;;;;;;121.18;26.63;;;;;;;1.19;100.00;97264.75;5057848;28;20060;-81
2021/12/06 05:08:42;;;;;;;129.52;28.67;;;;;;;1.27;100.00;97261.56;5055824;28;20044;-84
2021/12/06 05:11:10;;;;;;;138.70;31.30;;;;;;;1.25;100.00;97265.56;5069680;28;20045;-80
2021/12/06 05:13:41;;;;;;;120.35;30.70;;;;;;;1.19;100.00;97261.28;5063091;28;20484;-81
2021/12/06 05:16:07;;;;;;;116.90;31.25;;;;;;;1.24;100.00;97266.63;5071873;28;20048;-81
2021/12/06 05:18:34;;;;;;;107.15;30.65;;;;;;;1.18;100.00;97276.50;5066692;28;20466;-81
2021/12/06 05:21:02;;;;;;;113.07;31.17;;;;;;;1.09;100.00;97270.06;5071933;28;20052;-82
2021/12/06 05:23:29;;;;;;;90.38;27.45;;;;;;;1.05;100.00;97289.53;5072269;28;20052;-82
2021/12/06 05:25:57;;;;;;;85.00;27.73;;;;;;;1.10;100.00;97271.69;5073106;28;20056;-80
2021/12/06 05:28:27;;;;;;;82.18;26.58;;;;;;;1.12;100.00;97290.06;5071717;28;20090;-81
2021/12/06 05:30:56;;;;;;;79.13;27.45;;;;;;;1.06;100.00;97299.09;5073863;28;20055;-82
2021/12/06 05:33:31;;;;;;;86.22;28.85;;;;;;;1.12;100.00;97293.53;5073039;28;20044;-82
2021/12/06 05:36:02;;;;;;;89.63;28.58;;;;;;;1.11;100.00;97286.59;5057634;28;20051;-81
2021/12/06 05:38:32;;;;;;;85.72;31.05;;;;;;;1.09;100.00;97306.56;5066544;28;20048;-81
2021/12/06 05:41:15;;;;;;;85.38;30.17;;;;;;;1.07;100.00;97303.38;5075319;28;20090;-82
2021/12/06 05:43:41;;;;;;;89.70;31.75;;;;;;;1.13;100.00;97297.81;5063514;28;20497;-81
2021/12/06 05:46:08;;;;;;;87.72;30.52;;;;;;;1.17;100.00;97312.22;5052568;28;20064;-82
2021/12/06 05:48:35;;;;;;;90.63;31.73;;;;;;;1.07;100.00;97309.53;5063109;28;20040;-83
2021/12/06 05:51:02;;;;;;;95.50;34.03;;;;;;;1.04;100.00;97314.56;5067179;28;20139;-81
2021/12/06 05:53:28;;;;;;;95.88;34.15;;;;;;;1.06;100.00;97317.75;5079225;28;20086;-82
2021/12/06 05:55:56;;;;;;;98.38;34.83;;;;;;;1.10;100.00;97318.84;5074400;28;20562;-81
2021/12/06 05:58:26;;;;;;;90.88;32.55;;;;;;;1.07;100.00;97319.38;5071779;28;20049;-83
2021/12/06 06:00:56;;;;;;;93.20;33.95;;;;;;;1.02;100.00;97317.50;5071969;28;20056;-81
2021/12/06 06:03:24;;;;;;;78.47;31.35;;;;;;;1.06;100.00;97318.56;5074069;28;20051;-82
2021/12/06 06:05:52;;;;;;;88.35;33.05;;;;;;;1.02;100.00;97332.69;5073282;28;20056;-81
2021/12/06 06:08:19;;;;;;;84.45;32.22;;;;;;;0.94;100.00;97319.84;5068988;28;20041;-81
2021/12/06 06:10:50;;;;;;;82.68;32.60;;;;;;;0.93;100.00;97323.59;5071202;28;20056;-82
2021/12/06 06:13:19;;;;;;;93.28;33.40;;;;;;;0.87;100.00;97328.09;5072754;28;20052;-82
2021/12/06 06:15:49;;;;;;;92.90;34.22;;;;;;;0.95;100.00;97338.25;5076183;28;20119;-82
2021/12/06 06:18:16;;;;;;;83.13;32.63;;;;;;;0.98;100.00;97342.28;5072796;28;20044;-82
2021/12/06 06:20:49;;;;;;;81.88;32.58;;;;;;;0.94;100.00;97349.16;5072805;28;20044;-81
2021/12/06 06:23:20;;;;;;;83.47;32.65;;;;;;;0.81;100.00;97338.97;5069075;28;20882;-83
2021/12/06 06:25:47;;;;;;;80.13;30.98;;;;;;;0.88;100.00;97343.00;5065321;28;20140;-83
2021/12/06 06:28:14;;;;;;;77.35;30.63;;;;;;;0.91;100.00;97341.69;5055502;28;20095;-82
2021/12/06 06:30:41;;;;;;;75.60;29.35;;;;;;;0.95;100.00;97367.59;5060501;28;20615;-79
2021/12/06 06:33:09;;;;;;;81.35;31.95;;;;;;;1.07;100.00;97352.16;5061478;28;20063;-79
2021/12/06 06:35:36;;;;;;;74.70;30.90;;;;;;;1.00;100.00;97361.47;5084491;28;20049;-79
2021/12/06 06:38:17;;;;;;;65.47;29.02;;;;;;;0.92;100.00;97362.75;5085200;28;20052;-78
2021/12/06 06:40:44;;;;;;;74.70;30.55;;;;;;;0.87;100.00;97361.94;5075775;28;20059;-77
2021/12/06 06:43:13;;;;;;;68.18;28.58;;;;;;;0.83;100.00;97372.28;5076233;28;20044;-78
2021/12/06 06:45:40;;;;;;;75.28;31.52;;;;;;;0.89;100.00;97373.13;5074459;28;20056;-80
2021/12/06 06:48:06;;;;;;;70.75;29.48;;;;;;;0.83;100.00;97376.81;5073407;28;20393;-80
2021/12/06 06:50:35;;;;;;;72.32;30.63;;;;;;;0.87;100.00;97376.06;5078955;28;20052;-84
2021/12/06 06:53:05;;;;;;;68.85;29.27;;;;;;;0.78;100.00;97364.28;5079940;28;20451;-83
2021/12/06 06:55:31;;;;;;;77.75;31.50;;;;;;;0.93;100.00;97372.34;5076038;28;20060;-81
2021/12/06 06:58:29;;;;;;;71.00;30.08;;;;;;;0.79;100.00;97376.56;5142015;27;20395;-83
2021/12/06 07:00:56;;;;;;;64.35;28.52;;;;;;;0.89;100.00;97378.47;5135266;28;20097;-84
2021/12/06 07:03:24;;;;;;;64.43;28.48;;;;;;;0.74;100.00;97381.84;5109146;28;20146;-82
2021/12/06 07:05:51;;;;;;;67.68;29.42;;;;;;;0.84;100.00;97394.41;5126617;27;20047;-83
2021/12/06 07:08:17;;;;;;;70.15;29.65;;;;;;;0.87;100.00;97388.56;5119488;28;20100;-82
2021/12/06 07:10:49;;;;;;;66.40;27.98;;;;;;;0.89;100.00;97389.13;5131986;28;20044;-79
2021/12/06 07:13:16;;;;;;;64.47;27.90;;;;;;;0.75;100.00;97403.97;5108329;28;20039;-81
2021/12/06 07:15:43;;;;;;;60.95;27.75;;;;;;;0.76;100.00;97403.69;5105244;28;20077;-82
2021/12/06 07:18:12;;;;;;;64.00;28.00;;;;;;;0.84;100.00;97407.75;5107831;27;20047;-82
2021/12/06 07:20:41;;;;;;;69.63;30.02;;;;;;;0.92;100.00;97408.06;5110680;28;20058;-81
2021/12/06 07:23:07;;;;;;;67.25;29.58;;;;;;;1.02;100.00;97417.97;5127345;28;20074;-82
2021/12/06 07:25:34;;;;;;;66.55;29.23;;;;;;;0.88;100.00;97420.28;5109610;28;20105;-83
2021/12/06 07:28:05;;;;;;;59.88;26.55;;;;;;;0.88;100.00;97416.84;5112325;28;20131;-84
2021/12/06 07:30:34;;;;;;;59.45;26.38;;;;;;;0.85;100.00;97407.47;5102313;28;20048;-83
2021/12/06 07:33:02;;;;;;;57.75;25.50;;;;;;;0.98;100.00;97422.22;5119725;28;20072;-82
2021/12/06 07:35:29;;;;;;;53.67;24.40;;;;;;;0.89;100.00;97405.09;5121532;28;20056;-82
2021/12/06 07:37:57;;;;;;;51.47;23.88;;;;;;;1.10;100.00;97420.13;5123326;28;20040;-82
2021/12/06 07:40:24;;;;;;;48.80;22.80;;;;;;;1.21;100.00;97435.91;5101803;28;20044;-83
2021/12/06 07:42:50;;;;;;;51.03;22.55;;;;;;;1.19;100.00;97427.38;5096603;28;20470;-83
2021/12/06 07:45:17;;;;;;;46.90;22.27;;;;;;;1.13;100.00;97441.75;5131622;27;20055;-82
2021/12/06 07:47:44;;;;;;;43.90;21.15;;;;;;;1.08;100.00;97435.59;5113743;28;20051;-82
2021/12/06 07:50:14;;;;;;;46.08;20.73;;;;;;;1.15;100.00;97433.50;5131168;27;20144;-83
2021/12/06 07:52:47;;;;;;;36.53;15.80;;;;;;;0.89;100.00;97429.09;5130873;28;20051;-83
2021/12/06 07:55:15;;;;;;;40.22;19.33;;;;;;;0.87;100.00;97429.34;5113251;28;20525;-82
2021/12/06 07:57:42;;;;;;;41.67;19.83;;;;;;;0.96;100.00;97442.97;5111922;28;20089;-82
2021/12/06 08:00:14;;;;;;;37.97;17.65;;;;;;;0.97;100.00;97436.59;5117555;28;20411;-80
2021/12/06 08:02:41;;;;;;;39.17;17.95;;;;;;;1.07;100.00;97436.66;5110363;28;20043;-80
2021/12/06 08:08:06;;;;;;;40.78;19.27;;;;;;;1.16;100.00;97451.09;5128844;28;20055;-82
2021/12/06 08:10:35;;;;;;;40.15;18.83;;;;;;;1.22;100.00;97455.38;5098500;28;20047;-82
2021/12/06 08:13:03;;;;;;;39.13;18.60;;;;;;;1.12;100.00;97458.00;5115900;28;20056;-81
2021/12/06 08:15:31;;;;;;;42.03;18.65;;;;;;;1.15;100.00;97454.81;5123405;27;20414;-82
2021/12/06 08:17:58;;;;;;;40.70;19.17;;;;;;;1.14;100.00;97453.19;5119215;27;20142;-81
2021/12/06 08:20:25;;;;;;;39.72;19.20;;;;;;;1.15;100.00;97457.47;5120123;27;20455;-80
2021/12/06 08:22:52;;;;;;;36.08;18.80;;;;;;;0.75;100.00;97465.25;5118391;27;20409;-81
2021/12/06 08:25:19;;;;;;;35.03;17.60;;;;;;;1.02;100.00;97468.59;5136398;27;20137;-81
2021/12/06 08:27:46;;;;;;;35.10;17.10;;;;;;;1.06;100.00;97467.00;5116610;27;20043;-82
2021/12/06 08:30:16;;;;;;;29.95;16.10;;;;;;;1.13;100.00;97472.94;5127335;27;20043;-80
2021/12/06 08:32:42;;;;;;;31.65;15.65;;;;;;;1.14;100.00;97478.00;5133005;27;20443;-80
2021/12/06 08:35:30;;;;;;;37.38;17.70;;;;;;;1.17;100.00;97477.47;5114820;28;20328;-83
2021/12/06 08:37:58;;;;;;;33.03;16.23;;;;;;;1.04;100.00;97469.94;5117522;28;20454;-82
2021/12/06 08:40:28;;;;;;;29.75;15.07;;;;;;;1.08;100.00;97478.25;5123318;28;20048;-81
2021/12/06 08:42:58;;;;;;;29.70;15.05;;;;;;;1.09;100.00;97479.81;5130492;28;20047;-84
2021/12/06 08:45:27;;;;;;;30.98;16.02;;;;;;;1.03;100.00;97483.53;5119502;28;20058;-82
2021/12/06 08:47:54;;;;;;;29.52;15.13;;;;;;;1.11;100.00;97480.41;5118016;28;20040;-81
2021/12/06 08:50:34;;;;;;;30.25;15.15;;;;;;;1.06;100.00;97475.00;5115739;28;20055;-79
2021/12/06 08:53:01;;;;;;;28.38;14.65;;;;;;;1.18;100.00;97481.78;5115283;28;20048;-82
2021/12/06 08:55:29;;;;;;;28.90;14.07;;;;;;;1.20;100.00;97479.63;5116072;28;20488;-82
2021/12/06 08:57:56;;;;;;;30.50;14.65;;;;;;;1.24;100.00;97471.91;5112796;28;20725;-81
2021/12/06 09:00:27;;;;;;;32.95;15.77;;;;;;;1.31;100.00;97493.03;5113914;28;20104;-81
2021/12/06 09:02:54;;;;;;;32.13;15.98;;;;;;;1.22;100.00;97488.19;5113371;28;20054;-82
2021/12/06 09:05:27;;;;;;;31.23;15.80;;;;;;;1.29;100.00;97487.97;5118539;27;20502;-81
2021/12/06 09:07:55;;;;;;;30.83;15.35;;;;;;;1.27;100.00;97490.88;5118134;27;20049;-82
2021/12/06 09:10:22;;;;;;;36.03;16.90;;;;;;;1.25;100.00;97502.84;5117661;27;20051;-81
2021/12/06 09:12:49;;;;;;;45.20;21.10;;;;;;;1.11;100.00;97507.81;5116810;27;20051;-83
2021/12/06 09:15:19;;;;;;;45.47;21.15;;;;;;;1.10;100.00;97514.25;5118397;27;20054;-82
2021/12/06 09:17:48;;;;;;;44.85;21.75;;;;;;;1.01;100.00;97520.28;5105722;28;20669;-82
2021/12/06 09:20:18;;;;;;;39.60;19.92;;;;;;;1.05;100.00;97506.22;5101045;28;20488;-82
2021/12/06 09:22:47;;;;;;;43.92;20.80;;;;;;;1.14;100.00;97512.66;5105318;28;20040;-82
2021/12/06 09:25:15;;;;;;;44.88;21.25;;;;;;;1.15;100.00;97508.13;5104860;28;20065;-83
2021/12/06 09:27:43;;;;;;;43.83;21.40;;;;;;;1.02;100.00;97520.03;5084842;28;20051;-82
2021/12/06 09:30:14;;;;;;;43.00;21.05;;;;;;;1.01;100.00;97523.75;5078312;28;20458;-82
2021/12/06 09:32:42;;;;;;;41.70;20.50;;;;;;;1.12;100.00;97529.97;5077597;28;20596;-83
2021/12/06 09:35:12;;;;;;;46.88;22.77;;;;;;;1.03;100.00;97528.84;5077492;28;20415;-84
2021/12/06 09:37:40;;;;;;;43.33;21.42;;;;;;;1.01;100.00;97529.09;5076921;28;20055;-82
2021/12/06 09:40:08;;;;;;;44.90;21.70;;;;;;;1.03;100.00;97532.28;5134354;27;20104;-82
2021/12/06 09:42:37;;;;;;;45.38;22.33;;;;;;;1.01;100.00;97538.94;5134640;27;20047;-80
2021/12/06 09:45:07;;;;;;;47.20;22.10;;;;;;;0.94;100.00;97535.69;5133471;27;20115;-83
2021/12/06 09:47:34;;;;;;;48.33;22.48;;;;;;;0.93;100.00;97529.56;5135425;27;20039;-82
2021/12/06 09:50:01;;;;;;;46.33;22.35;;;;;;;1.03;100.00;97526.97;5121226;27;20047;-80
2021/12/06 09:52:27;;;;;;;45.85;22.00;;;;;;;0.95;100.00;97524.81;5114223;28;20051;-80
2021/12/06 09:54:55;;;;;;;41.95;21.77;;;;;;;1.01;100.00;97534.41;5114119;28;20146;-81
2021/12/06 09:57:23;;;;;;;42.25;21.50;;;;;;;1.13;100.00;97526.25;5114089;28;20051;-82
2021/12/06 09:59:50;;;;;;;47.08;22.80;;;;;;;1.09;100.00;97519.81;5115807;28;20051;-81
2021/12/06 10:02:19;;;;;;;46.45;22.10;;;;;;;1.20;100.00;97530.28;5115050;28;20055;-81
2021/12/06 10:04:50;;;;;;;43.83;21.30;;;;;;;1.11;100.00;97536.38;5116217;27;20073;-81
2021/12/06 10:07:20;;;;;;;45.55;21.10;;;;;;;0.88;100.00;97524.19;5134867;27;20092;-82
2021/12/06 10:09:49;;;;;;;44.97;21.73;;;;;;;1.10;100.00;97543.56;5116618;27;20051;-82
2021/12/06 10:12:17;;;;;;;45.38;21.42;;;;;;;1.17;100.00;97530.81;5133709;27;20055;-81
2021/12/06 10:14:45;;;;;;;44.78;21.67;;;;;;;1.31;100.00;97527.69;5116052;27;20059;-82
2021/12/06 10:17:15;;;;;;;41.70;20.67;;;;;;;1.39;100.00;97535.19;5125942;27;20047;-83
2021/12/06 10:19:44;;;;;;;42.17;21.17;;;;;;;1.40;100.00;97532.25;5135143;27;20057;-82
2021/12/06 10:22:11;;;;;;;41.35;19.80;;;;;;;1.32;100.00;97540.75;5101759;28;20117;-82
2021/12/06 10:24:38;;;;;;;40.47;20.42;;;;;;;1.36;100.00;97523.19;5103591;28;20443;-82
2021/12/06 10:27:11;;;;;;;40.53;20.45;;;;;;;1.47;100.00;97540.81;5117619;28;20051;-83
2021/12/06 10:29:46;;;;;;;40.95;20.83;;;;;;;1.47;100.00;97538.16;5112102;28;20043;-82
2021/12/06 10:32:19;;;;;;;44.42;21.00;;;;;;;1.51;100.00;97528.59;5118068;28;20058;-82
2021/12/06 10:34:56;;;;;;;39.60;20.35;;;;;;;1.53;100.00;97520.31;5097778;28;20142;-82
2021/12/06 10:37:31;;;;;;;41.95;20.88;;;;;;;1.55;100.00;97527.00;5102075;28;20044;-82
2021/12/06 10:39:58;;;;;;;41.17;19.55;;;;;;;1.43;100.00;97530.94;5100496;28;20048;-82
2021/12/06 10:42:31;;;;;;;38.88;18.90;;;;;;;1.49;100.00;97535.25;5091136;28;20112;-81
2021/12/06 10:45:08;;;;;;;42.90;19.17;;;;;;;1.54;100.00;97517.41;5111620;28;20047;-81
2021/12/06 10:47:35;;;;;;;40.58;19.02;;;;;;;1.60;100.00;97516.34;5094462;28;20469;-84
2021/12/06 10:50:12;;;;;;;41.58;19.80;;;;;;;1.68;100.00;97512.38;5094414;28;20044;-81
2021/12/06 10:52:53;;;;;;;39.92;19.33;;;;;;;1.72;100.00;97503.63;5111881;28;20051;-82
2021/12/06 10:55:23;;;;;;;38.38;18.38;;;;;;;2.05;100.00;97498.91;5113413;28;20507;-82
2021/12/06 10:57:56;;;;;;;39.85;19.25;;;;;;;2.01;100.00;97493.31;5096309;28;20769;-82
2021/12/06 11:00:46;;;;;;;41.95;20.25;;;;;;;1.82;100.00;97500.97;5116064;28;20043;-81
2021/12/06 11:03:21;;;;;;;42.33;19.73;;;;;;;1.84;100.00;97495.38;5092461;28;20051;-83
2021/12/06 11:06:30;;;;;;;40.00;20.08;;;;;;;1.77;100.00;97508.16;5081419;28;20050;-81
2021/12/06 11:09:01;;;;;;;41.08;20.42;;;;;;;1.82;100.00;97492.16;5096687;28;20044;-82
2021/12/06 11:11:34;;;;;;;43.97;20.13;;;;;;;1.75;100.00;97487.09;5096691;28;20055;-82
2021/12/06 11:14:07;;;;;;;44.20;19.98;;;;;;;1.80;100.00;97489.78;5098815;28;20059;-81
2021/12/06 11:16:37;;;;;;;44.42;19.48;;;;;;;1.78;100.00;97486.53;5079440;28;20586;-82
2021/12/06 11:19:12;;;;;;;41.75;19.58;;;;;;;1.65;100.00;97500.38;5112745;28;20072;-82
2021/12/06 11:21:49;;;;;;;38.35;18.42;;;;;;;1.72;100.00;97500.13;5116255;28;20048;-82
2021/12/06 11:24:15;;;;;;;;;;;;;;;1.79;100.00;97512.16;5115001;28;20052;-82
2021/12/06 11:26:50;;;;;;;42.63;20.25;;;;;;;1.80;100.00;97508.44;5091911;28;19977;-83
2021/12/06 11:29:46;;;;;;;42.90;19.85;;;;;;;1.80;100.00;97512.97;5094287;28;20113;-83
2021/12/06 11:32:19;;;;;;;40.60;19.40;;;;;;;1.57;100.00;97516.91;5089916;28;20044;-82
2021/12/06 11:34:48;;;;;;;41.65;19.48;;;;;;;1.51;100.00;97517.13;5108659;28;20132;-82
2021/12/06 11:37:23;;;;;;;40.70;19.58;;;;;;;1.74;100.00;97506.81;5123463;28;20085;-83
2021/12/06 11:40:17;;;;;;;44.78;20.15;;;;;;;1.67;100.00;97511.59;5114064;28;20051;-82
2021/12/06 11:42:46;;;;;;;47.88;21.15;;;;;;;1.66;100.00;97517.19;5101472;28;20063;-81